Terminal Aerodrome Forecast
Issued by NWS Shreveport, LA

Home | Current Version | Previous Version | Text Only | Print | Product List | Glossary On
Versions: 1 2 3 4 5 6 7 8 9 10 11 12 13 14 15 16 17
000
FTUS44 KSHV 272331
TAFTXK
TAF
KTXK 272331Z 2800/2824 VRB05KT P6SM VCSH SCT050 SCT100 BKN250
     FM280300 VRB04KT P6SM SCT060 BKN140 BKN250
     FM280600 VRB03KT P6SM VCSH FEW060 BKN100 BKN250
      TEMPO 2808/2812 5SM -SHRA BR OVC050
     FM281200 VRB05KT P6SM VCTS SCT025CB OVC040
     FM281800 VRB06KT P6SM VCTS SCT040CB OVC100=

USA.gov is the U.S. government's official web portal to all federal, state and local government web resources and services.